Time;durP1;ratioP1;P1;durP2;ratioP2;P2;SDS_P1;SDS_P2;PMS_P1;PMS_P2;Temp;Humidity;BMP_temperature;BMP_pressure;BME280_temperature;BME280_humidity;BME280_pressure;Samples;Min_cycle;Max_cycle;Signal;HPM_P1;HPM_P2
2022/01/17 00:01:18;;;;;;;0.60;0.50;;;5.20;99.90;;;;;;5009058;28;20518;-74
2022/01/17 00:03:44;;;;;;;0.93;0.93;;;5.10;99.90;;;;;;5011876;28;20434;-74
2022/01/17 00:06:10;;;;;;;3.03;2.93;;;5.10;99.90;;;;;;5011930;28;20478;-74
2022/01/17 00:08:41;;;;;;;0.90;0.90;;;5.10;99.90;;;;;;5010366;28;20533;-74
2022/01/17 00:11:07;;;;;;;0.60;0.60;;;5.00;99.90;;;;;;5008032;28;20434;-72
2022/01/17 00:13:33;;;;;;;1.43;1.33;;;5.00;99.90;;;;;;5012277;28;20587;-74
2022/01/17 00:16:07;;;;;;;2.20;2.10;;;5.10;99.90;;;;;;5011622;28;20560;-74
2022/01/17 00:21:02;;;;;;;1.70;1.57;;;5.00;99.90;;;;;;5012157;28;20439;-74
2022/01/17 00:23:28;;;;;;;2.80;1.10;;;4.90;99.90;;;;;;5011826;28;20908;-74
2022/01/17 00:25:53;;;;;;;6.30;2.30;;;5.00;99.90;;;;;;5015011;28;20459;-74
2022/01/17 00:28:19;;;;;;;3.10;0.97;;;5.00;99.90;;;;;;5010607;28;20757;-74
2022/01/17 00:30:45;;;;;;;1.10;1.10;;;5.00;99.90;;;;;;5011079;28;20182;-74
2022/01/17 00:33:11;;;;;;;0.60;0.50;;;4.90;99.90;;;;;;5011864;28;20259;-74
2022/01/17 00:35:37;;;;;;;2.97;2.87;;;4.90;99.90;;;;;;5010964;28;20227;-74
2022/01/17 00:38:03;;;;;;;0.60;0.60;;;4.90;99.90;;;;;;5011692;28;20431;-74
2022/01/17 00:40:29;;;;;;;0.83;0.83;;;5.00;99.90;;;;;;5011067;28;20438;-74
2022/01/17 00:42:54;;;;;;;6.03;1.17;;;5.00;99.90;;;;;;5011998;28;20517;-74
2022/01/17 00:45:26;;;;;;;3.63;1.43;;;5.10;99.90;;;;;;5025990;28;20184;-74
2022/01/17 00:47:55;;;;;;;0.60;0.60;;;5.10;99.90;;;;;;5010066;28;20204;-74
2022/01/17 00:50:21;;;;;;;1.30;1.30;;;5.20;99.90;;;;;;5011292;28;20434;-74
2022/01/17 00:52:47;;;;;;;2.20;2.10;;;5.20;99.90;;;;;;5011198;28;20435;-74
2022/01/17 00:55:12;;;;;;;1.10;1.00;;;5.30;99.90;;;;;;5010958;28;20994;-74
2022/01/17 00:57:38;;;;;;;1.03;0.83;;;5.30;99.90;;;;;;5010816;28;20213;-74
2022/01/17 01:00:05;;;;;;;1.10;1.10;;;5.30;99.90;;;;;;5011004;28;20180;-74
2022/01/17 01:02:30;;;;;;;4.40;1.90;;;5.30;99.90;;;;;;5010848;28;20180;-74
2022/01/17 01:04:56;;;;;;;2.17;2.07;;;5.40;99.90;;;;;;5017303;28;20446;-74
2022/01/17 01:07:21;;;;;;;1.17;1.07;;;5.40;99.90;;;;;;5011140;28;20211;-74
2022/01/17 01:10:01;;;;;;;1.17;1.17;;;5.40;99.90;;;;;;5011085;28;20187;-74
2022/01/17 01:12:27;;;;;;;0.80;0.80;;;5.40;99.90;;;;;;5010847;28;20191;-73
2022/01/17 01:14:53;;;;;;;0.60;0.60;;;5.40;99.90;;;;;;5011379;28;20459;-74
2022/01/17 01:17:31;;;;;;;1.53;1.43;;;5.40;99.90;;;;;;5011006;28;20193;-74
2022/01/17 01:20:10;;;;;;;1.00;0.90;;;5.50;99.90;;;;;;5011173;28;20439;-74
2022/01/17 01:28:05;;;;;;;1.37;1.07;;;5.50;99.90;;;;;;5010370;28;20468;-74
2022/01/17 01:30:32;;;;;;;1.43;1.33;;;5.50;99.90;;;;;;5010305;28;20419;-74
2022/01/17 01:32:59;;;;;;;1.07;1.07;;;5.50;99.90;;;;;;5009562;28;20430;-74
2022/01/17 01:35:27;;;;;;;0.93;0.93;;;5.60;99.90;;;;;;5006953;28;20463;-74
2022/01/17 01:37:53;;;;;;;1.10;1.10;;;5.70;99.90;;;;;;5008558;28;20455;-74
2022/01/17 01:40:20;;;;;;;2.07;1.93;;;5.60;99.90;;;;;;5011415;28;20438;-74
2022/01/17 01:42:48;;;;;;;1.53;1.53;;;5.60;99.90;;;;;;5011206;28;20420;-74
2022/01/17 01:45:14;;;;;;;1.13;0.97;;;5.60;99.90;;;;;;5010203;28;20506;-74
2022/01/17 01:47:42;;;;;;;1.57;1.50;;;5.70;99.90;;;;;;5010348;28;20443;-74
2022/01/17 01:50:10;;;;;;;0.63;0.63;;;5.60;99.90;;;;;;5010128;28;20878;-74
2022/01/17 01:52:36;;;;;;;0.60;0.53;;;5.50;99.90;;;;;;5009980;28;20934;-74
2022/01/17 01:55:03;;;;;;;0.80;0.80;;;5.50;99.90;;;;;;5009875;28;20550;-74
2022/01/17 01:57:28;;;;;;;0.80;0.80;;;5.60;99.90;;;;;;5010247;28;20992;-74
2022/01/17 01:59:55;;;;;;;0.60;0.60;;;5.60;99.90;;;;;;5010128;28;20439;-74
2022/01/17 02:02:21;;;;;;;1.13;1.03;;;5.60;99.90;;;;;;5010132;28;20176;-74
2022/01/17 02:04:46;;;;;;;1.73;1.63;;;5.60;99.90;;;;;;5010315;28;20844;-74
2022/01/17 02:07:13;;;;;;;0.90;0.90;;;5.60;99.90;;;;;;5009969;28;20200;-74
2022/01/17 02:09:38;;;;;;;0.60;0.60;;;5.60;99.90;;;;;;5010903;28;20271;-74
2022/01/17 02:12:04;;;;;;;0.60;0.50;;;5.60;99.90;;;;;;5009662;28;20522;-74
2022/01/17 02:14:30;;;;;;;0.60;0.60;;;5.60;99.90;;;;;;5009934;28;20208;-74
2022/01/17 02:17:02;;;;;;;2.20;2.10;;;5.70;99.90;;;;;;5009709;28;20439;-74
2022/01/17 02:19:28;;;;;;;0.70;0.70;;;5.70;99.90;;;;;;5010074;28;20176;-74
2022/01/17 02:21:54;;;;;;;0.93;0.83;;;5.70;99.90;;;;;;5010441;28;20423;-74
2022/01/17 02:24:21;;;;;;;0.60;0.60;;;5.70;99.90;;;;;;5009239;28;20946;-74
2022/01/17 02:26:49;;;;;;;1.57;1.47;;;5.80;99.90;;;;;;5009611;28;20204;-74
2022/01/17 02:29:15;;;;;;;1.30;1.20;;;5.70;99.90;;;;;;5009317;28;20439;-74
2022/01/17 02:31:43;;;;;;;2.20;2.10;;;5.70;99.90;;;;;;5009689;28;20463;-74
2022/01/17 02:34:08;;;;;;;0.60;0.60;;;5.70;99.90;;;;;;5010258;28;20513;-74
2022/01/17 02:36:34;;;;;;;0.70;0.50;;;5.70;99.90;;;;;;5010065;28;20536;-74
2022/01/17 02:39:02;;;;;;;1.23;1.23;;;5.70;99.90;;;;;;5010117;28;20237;-74
2022/01/17 02:41:29;;;;;;;0.80;0.77;;;5.70;99.90;;;;;;5009833;28;20203;-74
2022/01/17 02:43:56;;;;;;;0.70;0.70;;;5.70;99.90;;;;;;5009680;28;20459;-74
2022/01/17 02:46:24;;;;;;;1.60;1.50;;;5.70;99.90;;;;;;5009645;28;20443;-74
2022/01/17 02:48:50;;;;;;;0.97;0.97;;;5.80;99.90;;;;;;5008923;28;20981;-74
2022/01/17 02:51:16;;;;;;;1.83;1.73;;;5.90;99.90;;;;;;5010072;28;20435;-74
2022/01/17 02:53:42;;;;;;;1.27;1.27;;;5.80;99.90;;;;;;5029639;28;20196;-74
2022/01/17 02:56:09;;;;;;;0.83;0.77;;;5.80;99.90;;;;;;5009135;28;20208;-74
2022/01/17 02:58:35;;;;;;;2.50;2.30;;;5.80;99.90;;;;;;5010211;28;20434;-74
2022/01/17 03:01:13;;;;;;;2.30;1.27;;;5.80;99.90;;;;;;5009580;28;20463;-74
2022/01/17 03:03:41;;;;;;;1.03;1.03;;;5.80;99.90;;;;;;5009565;28;20437;-74
2022/01/17 03:06:07;;;;;;;1.53;1.43;;;5.90;99.90;;;;;;5009423;28;20443;-75
2022/01/17 03:08:34;;;;;;;1.20;1.10;;;5.80;99.90;;;;;;5020651;28;20837;-74
2022/01/17 03:11:02;;;;;;;2.63;2.53;;;5.90;99.90;;;;;;5009359;28;20215;-74
2022/01/17 03:13:32;;;;;;;2.43;2.30;;;5.90;99.90;;;;;;5008856;28;20443;-75
2022/01/17 03:15:59;;;;;;;1.50;1.40;;;5.90;99.90;;;;;;4992861;28;20557;-74
2022/01/17 03:18:28;;;;;;;11.30;2.37;;;5.90;99.90;;;;;;5008840;28;20431;-75
2022/01/17 03:20:54;;;;;;;1.53;1.43;;;5.90;99.90;;;;;;5009334;28;20427;-75
2022/01/17 03:23:20;;;;;;;1.33;1.27;;;5.90;99.90;;;;;;5008631;28;20431;-75
2022/01/17 03:25:45;;;;;;;1.77;1.67;;;5.90;99.90;;;;;;5009128;28;20222;-75
2022/01/17 03:28:11;;;;;;;0.70;0.70;;;5.90;99.90;;;;;;5008889;28;20466;-74
2022/01/17 03:30:37;;;;;;;1.63;1.23;;;5.90;99.90;;;;;;5009870;28;20184;-74
2022/01/17 03:33:09;;;;;;;1.27;1.17;;;5.90;99.90;;;;;;5009549;28;20701;-74
2022/01/17 03:35:38;;;;;;;1.80;1.70;;;5.80;99.90;;;;;;5008608;28;20257;-74
2022/01/17 03:38:05;;;;;;;2.77;2.00;;;5.80;99.90;;;;;;5004527;28;20438;-74
2022/01/17 03:40:31;;;;;;;2.40;2.30;;;5.80;99.90;;;;;;5012565;28;20438;-75
2022/01/17 03:42:56;;;;;;;1.00;0.93;;;5.90;99.90;;;;;;5012854;28;20419;-75
2022/01/17 03:45:22;;;;;;;3.57;2.77;;;5.90;99.90;;;;;;5012269;28;20809;-75
2022/01/17 03:47:48;;;;;;;3.07;2.97;;;5.90;99.90;;;;;;5012386;28;20680;-75
2022/01/17 03:50:19;;;;;;;1.83;1.73;;;5.90;99.90;;;;;;5012145;28;20263;-75
2022/01/17 03:52:45;;;;;;;0.70;0.70;;;5.90;99.90;;;;;;5011787;28;20959;-75
2022/01/17 03:55:13;;;;;;;1.17;1.07;;;6.00;99.90;;;;;;5012533;28;20519;-75
2022/01/17 03:57:39;;;;;;;6.00;2.60;;;5.90;99.90;;;;;;5011984;28;20201;-74
2022/01/17 04:00:07;;;;;;;0.60;0.50;;;5.90;99.90;;;;;;5012080;28;20441;-75
2022/01/17 04:02:33;;;;;;;1.87;0.93;;;5.90;99.90;;;;;;5011886;28;20184;-75
2022/01/17 04:04:59;;;;;;;1.60;1.50;;;6.00;99.90;;;;;;5011907;28;20810;-75
2022/01/17 04:07:24;;;;;;;0.60;0.57;;;5.90;99.90;;;;;;5011816;28;20504;-75
2022/01/17 04:09:50;;;;;;;0.70;0.70;;;5.90;99.90;;;;;;5006151;28;20568;-75
2022/01/17 04:12:15;;;;;;;1.57;1.47;;;5.90;99.90;;;;;;5012478;28;20597;-75
2022/01/17 04:14:41;;;;;;;0.60;0.50;;;5.90;99.90;;;;;;5010485;28;20249;-75
2022/01/17 04:17:07;;;;;;;6.90;3.83;;;5.80;99.90;;;;;;5011867;28;20283;-74
2022/01/17 04:19:33;;;;;;;0.83;0.83;;;5.80;99.90;;;;;;5012067;28;20184;-74
2022/01/17 04:21:59;;;;;;;0.60;0.60;;;5.70;99.90;;;;;;5012440;28;20427;-74
2022/01/17 04:24:25;;;;;;;0.90;0.90;;;5.70;99.90;;;;;;5011733;28;20431;-74
2022/01/17 04:26:50;;;;;;;0.60;0.60;;;5.60;99.90;;;;;;5010681;28;20477;-75
2022/01/17 04:29:16;;;;;;;1.70;1.60;;;5.60;99.90;;;;;;5011677;28;20183;-75
2022/01/17 04:31:41;;;;;;;1.47;1.37;;;5.60;99.90;;;;;;5010744;28;20704;-74
2022/01/17 04:34:07;;;;;;;0.60;0.60;;;5.60;99.90;;;;;;5021019;28;20205;-74
2022/01/17 04:36:32;;;;;;;1.33;1.23;;;5.50;99.90;;;;;;5010698;28;20203;-74
2022/01/17 04:38:58;;;;;;;1.87;1.77;;;5.50;99.90;;;;;;5011859;28;20664;-74
2022/01/17 04:41:35;;;;;;;0.80;0.80;;;5.60;99.90;;;;;;5011118;28;20249;-74
2022/01/17 04:45:07;;;;;;;5.63;2.30;;;5.50;99.90;;;;;;4997441;28;20245;-75
2022/01/17 04:46:46;;;;;;;0.60;0.60;;;5.50;99.90;;;;;;5010722;28;20458;-74
2022/01/17 04:49:11;;;;;;;1.13;0.80;;;5.50;99.90;;;;;;5011143;28;20467;-74
2022/01/17 04:51:38;;;;;;;0.60;0.60;;;5.50;99.90;;;;;;5011185;28;20192;-74
2022/01/17 04:54:33;;;;;;;1.00;1.00;;;5.60;99.90;;;;;;5009704;28;20578;-74
2022/01/17 04:56:55;;;;;;;1.27;1.27;;;5.60;99.90;;;;;;5010370;28;20454;-74
2022/01/17 04:59:20;;;;;;;0.80;0.80;;;5.60;99.90;;;;;;5011828;28;20434;-74
2022/01/17 05:01:46;;;;;;;1.13;1.13;;;5.70;99.90;;;;;;5017253;28;20188;-74
2022/01/17 05:04:11;;;;;;;0.73;0.60;;;5.70;99.90;;;;;;5020753;28;20177;-74
2022/01/17 05:06:37;;;;;;;1.37;1.23;;;5.70;99.90;;;;;;5001201;28;20279;-74
2022/01/17 05:09:05;;;;;;;0.60;0.60;;;5.80;99.90;;;;;;5011409;28;20241;-74
2022/01/17 05:11:31;;;;;;;0.60;0.53;;;5.80;99.90;;;;;;5012135;28;20268;-75
2022/01/17 05:13:58;;;;;;;1.53;1.47;;;5.80;99.90;;;;;;4996240;28;20431;-74
2022/01/17 05:16:32;;;;;;;0.70;0.60;;;5.80;99.90;;;;;;5009976;28;20483;-75
2022/01/17 05:21:42;;;;;;;2.30;1.00;;;5.80;99.90;;;;;;5011189;28;20503;-74
2022/01/17 05:24:07;;;;;;;4.17;3.90;;;5.80;99.90;;;;;;5010687;28;20435;-74
2022/01/17 05:26:33;;;;;;;1.10;1.00;;;5.80;99.90;;;;;;5010724;28;20685;-74
2022/01/17 05:28:58;;;;;;;2.73;2.63;;;5.90;99.90;;;;;;5010970;28;20704;-74
2022/01/17 05:31:24;;;;;;;3.23;1.37;;;5.90;99.90;;;;;;5010994;28;20633;-74
2022/01/17 05:33:49;;;;;;;2.10;1.13;;;5.90;99.90;;;;;;5010325;28;20175;-74
2022/01/17 05:36:15;;;;;;;0.60;0.60;;;5.90;99.90;;;;;;5010586;28;20203;-74
2022/01/17 05:38:40;;;;;;;1.43;1.33;;;5.90;99.90;;;;;;5011337;28;20212;-74
2022/01/17 05:41:06;;;;;;;1.60;1.50;;;5.90;99.90;;;;;;5009855;28;20212;-74
2022/01/17 05:43:32;;;;;;;1.23;1.13;;;5.90;99.90;;;;;;5010207;28;20176;-75
2022/01/17 05:45:58;;;;;;;0.80;0.80;;;5.90;99.90;;;;;;5009833;28;20211;-75
2022/01/17 05:48:23;;;;;;;0.60;0.60;;;5.90;99.90;;;;;;5010605;28;20431;-75
2022/01/17 05:50:49;;;;;;;1.93;1.80;;;5.90;99.90;;;;;;5010070;28;20270;-75
2022/01/17 05:53:14;;;;;;;0.60;0.60;;;5.80;99.90;;;;;;5010245;28;20187;-74
2022/01/17 05:55:41;;;;;;;2.03;1.63;;;5.80;99.90;;;;;;5016356;28;20204;-75
2022/01/17 05:58:07;;;;;;;3.07;2.87;;;5.80;99.90;;;;;;5010777;28;20172;-75
2022/01/17 06:00:32;;;;;;;3.70;0.93;;;5.80;99.90;;;;;;5009337;28;20422;-74
2022/01/17 06:02:58;;;;;;;2.20;2.10;;;5.80;99.90;;;;;;5010325;28;20511;-74
2022/01/17 06:05:24;;;;;;;0.60;0.60;;;5.90;99.90;;;;;;5010335;28;20202;-75
2022/01/17 06:07:49;;;;;;;1.73;1.63;;;5.90;99.90;;;;;;5012924;28;20268;-74
2022/01/17 06:10:15;;;;;;;1.00;1.00;;;5.80;99.90;;;;;;5024758;28;20186;-74
2022/01/17 06:12:40;;;;;;;0.63;0.60;;;5.80;99.90;;;;;;5011325;28;20237;-74
2022/01/17 06:15:06;;;;;;;2.60;0.90;;;5.80;99.90;;;;;;5011785;28;20748;-74
2022/01/17 06:17:32;;;;;;;0.70;0.70;;;5.90;99.90;;;;;;5010935;28;20281;-74
2022/01/17 06:19:57;;;;;;;1.33;1.23;;;5.90;99.90;;;;;;5010597;28;20427;-74
2022/01/17 06:22:23;;;;;;;1.13;1.10;;;5.90;99.90;;;;;;5009300;28;20192;-74
2022/01/17 06:24:48;;;;;;;1.37;1.27;;;5.90;99.90;;;;;;5009418;28;20209;-74
2022/01/17 06:27:15;;;;;;;1.57;0.93;;;5.90;99.90;;;;;;5009206;28;20204;-73
2022/01/17 06:29:40;;;;;;;17.53;1.17;;;6.00;99.90;;;;;;5009676;28;20187;-74
2022/01/17 06:32:07;;;;;;;0.80;0.80;;;6.00;99.90;;;;;;5018435;28;20436;-73
2022/01/17 06:34:35;;;;;;;6.40;3.27;;;6.00;99.90;;;;;;5006290;28;20207;-74
2022/01/17 06:37:00;;;;;;;1.10;1.00;;;6.00;99.90;;;;;;5008236;28;20443;-73
2022/01/17 06:39:26;;;;;;;1.57;1.40;;;6.10;99.90;;;;;;5008843;28;20932;-74
2022/01/17 06:41:51;;;;;;;1.33;1.23;;;6.10;99.90;;;;;;5008992;28;20180;-74
2022/01/17 06:44:17;;;;;;;1.27;1.17;;;6.10;99.90;;;;;;5009086;28;20183;-73
2022/01/17 06:46:43;;;;;;;1.10;1.00;;;6.10;99.90;;;;;;5008954;28;20222;-74
2022/01/17 06:49:09;;;;;;;2.10;1.33;;;6.10;99.90;;;;;;5010653;28;20208;-74
2022/01/17 06:51:35;;;;;;;5.33;1.50;;;6.10;99.90;;;;;;5009327;28;20256;-74
2022/01/17 06:54:01;;;;;;;0.60;0.60;;;6.10;99.90;;;;;;5009550;28;20181;-74
2022/01/17 06:56:26;;;;;;;0.60;0.60;;;6.20;99.90;;;;;;5010264;28;20490;-74
2022/01/17 06:58:52;;;;;;;0.80;0.80;;;6.20;99.90;;;;;;5010032;28;20184;-75
2022/01/17 07:01:20;;;;;;;0.80;0.80;;;6.20;99.90;;;;;;5010119;28;20180;-74
2022/01/17 07:03:49;;;;;;;2.00;1.90;;;6.20;99.90;;;;;;5010446;28;20542;-74
2022/01/17 07:06:15;;;;;;;0.60;0.50;;;6.20;99.90;;;;;;5009958;28;20512;-74
2022/01/17 07:08:40;;;;;;;0.80;0.80;;;6.10;99.90;;;;;;5010076;28;20435;-75
2022/01/17 07:11:06;;;;;;;1.10;1.00;;;6.10;99.90;;;;;;5011504;28;20441;-74
2022/01/17 07:13:32;;;;;;;3.17;2.77;;;6.10;99.90;;;;;;5012682;28;20261;-74
2022/01/17 07:15:58;;;;;;;1.83;1.73;;;6.10;99.90;;;;;;5013113;28;20267;-74
2022/01/17 07:18:23;;;;;;;4.53;2.63;;;6.10;99.90;;;;;;5014225;28;20435;-74
2022/01/17 07:20:49;;;;;;;0.60;0.50;;;6.10;99.90;;;;;;5012965;28;20195;-73
2022/01/17 07:23:15;;;;;;;0.63;0.63;;;6.10;99.90;;;;;;5012981;28;20176;-73
2022/01/17 07:25:41;;;;;;;1.17;1.13;;;6.10;99.90;;;;;;5010647;28;20274;-73
2022/01/17 07:28:08;;;;;;;0.60;0.60;;;6.10;99.90;;;;;;5010046;28;20589;-73
2022/01/17 07:30:34;;;;;;;0.80;0.80;;;6.10;99.90;;;;;;5011943;28;20180;-72
2022/01/17 07:33:00;;;;;;;1.60;1.50;;;6.10;99.90;;;;;;5012386;28;20434;-73
2022/01/17 07:35:25;;;;;;;0.60;0.60;;;6.10;99.90;;;;;;5010514;28;20454;-73
2022/01/17 07:37:51;;;;;;;0.60;0.50;;;6.00;99.90;;;;;;5012303;28;20196;-73
2022/01/17 07:40:16;;;;;;;2.60;1.43;;;6.00;99.90;;;;;;5013125;28;20237;-73
2022/01/17 07:42:42;;;;;;;0.90;0.90;;;6.10;99.90;;;;;;5027011;28;20528;-72
2022/01/17 07:45:14;;;;;;;2.73;1.30;;;6.10;99.90;;;;;;5011973;28;20184;-73
2022/01/17 07:48:45;;;;;;;1.17;1.07;;;6.20;99.90;;;;;;5011726;28;20204;-74
2022/01/17 07:50:27;;;;;;;0.93;0.93;;;6.10;99.90;;;;;;5022357;28;20442;-73
2022/01/17 07:52:53;;;;;;;1.77;1.67;;;6.20;99.90;;;;;;5021308;28;20440;-73
2022/01/17 07:55:20;;;;;;;2.90;2.37;;;6.20;99.90;;;;;;5009935;28;20208;-73
2022/01/17 07:57:46;;;;;;;1.07;1.07;;;6.20;99.90;;;;;;5012375;28;20203;-74
2022/01/17 08:00:14;;;;;;;1.47;1.20;;;6.30;99.90;;;;;;5011304;28;20502;-74
2022/01/17 08:02:40;;;;;;;1.83;1.73;;;6.20;99.90;;;;;;5008504;28;20776;-73
2022/01/17 08:05:08;;;;;;;0.60;0.60;;;6.20;99.90;;;;;;5011779;28;20473;-74
2022/01/17 08:07:33;;;;;;;11.23;3.07;;;6.30;99.90;;;;;;5009911;28;20291;-72
2022/01/17 08:09:59;;;;;;;1.40;1.10;;;6.30;99.90;;;;;;5016767;28;20516;-74
2022/01/17 08:12:24;;;;;;;1.33;1.33;;;6.30;99.90;;;;;;5011694;28;20259;-73
2022/01/17 08:14:50;;;;;;;2.13;2.03;;;6.30;99.90;;;;;;5011769;28;20631;-73
2022/01/17 08:17:16;;;;;;;1.20;0.93;;;6.40;99.90;;;;;;5009534;28;20203;-73
2022/01/17 08:19:41;;;;;;;0.80;0.80;;;6.50;99.90;;;;;;5011460;28;20214;-73
2022/01/17 08:22:08;;;;;;;1.03;1.03;;;6.60;99.90;;;;;;5010983;28;20187;-73
2022/01/17 08:24:34;;;;;;;3.10;1.87;;;6.70;99.90;;;;;;5011067;28;20177;-73
2022/01/17 08:27:01;;;;;;;1.73;0.73;;;6.80;99.90;;;;;;5010919;28;20443;-73
2022/01/17 08:29:28;;;;;;;0.70;0.70;;;6.80;99.90;;;;;;5011114;28;20979;-74
2022/01/17 08:31:55;;;;;;;3.10;1.10;;;6.90;99.90;;;;;;5010789;28;20462;-74
2022/01/17 08:34:21;;;;;;;2.33;1.90;;;6.90;99.90;;;;;;5011916;28;20429;-74
2022/01/17 08:36:47;;;;;;;1.67;1.57;;;6.90;99.90;;;;;;5012796;28;20435;-74
2022/01/17 08:39:13;;;;;;;4.27;1.83;;;6.90;99.90;;;;;;5012153;28;20983;-74
2022/01/17 08:41:42;;;;;;;1.10;1.10;;;6.90;99.90;;;;;;5011665;28;20443;-74
2022/01/17 08:44:09;;;;;;;1.47;1.37;;;6.90;99.90;;;;;;5011976;28;20785;-73
2022/01/17 08:46:35;;;;;;;2.80;2.70;;;6.80;99.90;;;;;;5010715;28;21031;-73
2022/01/17 08:49:00;;;;;;;2.50;2.40;;;6.90;99.90;;;;;;5011287;28;20507;-74
2022/01/17 08:51:26;;;;;;;1.90;1.80;;;6.90;99.90;;;;;;5010984;28;20178;-73
2022/01/17 08:53:51;;;;;;;1.50;1.20;;;6.80;99.90;;;;;;5010874;28;20300;-73
2022/01/17 08:56:17;;;;;;;1.13;1.13;;;6.80;99.90;;;;;;5010569;28;20228;-74
2022/01/17 08:58:42;;;;;;;0.80;0.80;;;6.70;99.90;;;;;;5010572;28;20181;-74
2022/01/17 09:01:13;;;;;;;1.37;1.27;;;6.70;99.90;;;;;;5010473;28;20177;-73
2022/01/17 09:03:42;;;;;;;1.90;1.80;;;6.60;99.90;;;;;;5012488;28;20173;-74
2022/01/17 09:06:08;;;;;;;3.07;2.87;;;6.70;99.90;;;;;;5027034;28;20443;-74
2022/01/17 09:08:33;;;;;;;2.27;1.10;;;6.60;99.90;;;;;;5012072;28;20491;-74
2022/01/17 09:10:59;;;;;;;1.83;1.33;;;6.60;99.90;;;;;;5010795;28;20236;-74
2022/01/17 09:13:25;;;;;;;3.37;1.77;;;6.50;99.90;;;;;;5011643;28;20183;-75
2022/01/17 09:15:52;;;;;;;3.00;2.47;;;6.60;99.90;;;;;;5010916;28;20272;-74
2022/01/17 09:18:20;;;;;;;2.10;1.33;;;6.60;99.90;;;;;;5011865;28;20423;-75
2022/01/17 09:20:47;;;;;;;1.63;1.57;;;6.70;99.90;;;;;;5012022;28;20958;-74
2022/01/17 09:23:13;;;;;;;1.43;1.33;;;6.70;99.90;;;;;;4999249;28;20513;-74
2022/01/17 09:25:39;;;;;;;1.83;1.73;;;6.70;99.90;;;;;;5011569;28;20439;-74
2022/01/17 09:28:05;;;;;;;4.50;1.80;;;6.70;99.90;;;;;;5010291;28;20180;-74
2022/01/17 09:30:30;;;;;;;4.40;2.80;;;6.90;99.90;;;;;;5010342;28;20423;-74
2022/01/17 09:32:56;;;;;;;1.17;1.17;;;7.10;99.90;;;;;;5010175;28;20181;-74
2022/01/17 09:35:22;;;;;;;2.37;1.40;;;7.20;99.90;;;;;;5009443;28;20599;-75
2022/01/17 09:37:49;;;;;;;0.80;0.80;;;7.30;99.90;;;;;;5009906;28;20869;-75
2022/01/17 09:40:15;;;;;;;2.10;2.00;;;7.30;99.90;;;;;;5010513;28;20464;-75
2022/01/17 09:42:40;;;;;;;6.13;1.63;;;7.20;99.90;;;;;;5010115;28;20419;-74
2022/01/17 09:45:11;;;;;;;1.63;1.03;;;7.50;99.90;;;;;;5010238;28;20235;-74
2022/01/17 09:47:37;;;;;;;1.63;1.53;;;8.10;99.90;;;;;;5012026;28;20235;-74
2022/01/17 09:50:08;;;;;;;4.00;3.83;;;8.80;99.90;;;;;;5012064;28;20506;-74
2022/01/17 09:52:35;;;;;;;1.30;1.23;;;9.20;99.90;;;;;;5010155;28;20500;-73
2022/01/17 09:55:15;;;;;;;2.30;0.87;;;9.30;99.90;;;;;;5008849;28;20504;-73
2022/01/17 09:57:54;;;;;;;3.07;2.20;;;9.20;99.90;;;;;;5019730;28;20525;-73
2022/01/17 10:00:26;;;;;;;1.77;1.33;;;8.90;99.90;;;;;;5022853;28;20423;-74
2022/01/17 10:02:54;;;;;;;6.93;1.60;;;8.60;99.90;;;;;;5011357;28;20428;-74
2022/01/17 10:05:20;;;;;;;0.93;0.93;;;8.50;99.90;;;;;;5008669;28;20427;-74
2022/01/17 10:07:51;;;;;;;3.23;2.13;;;8.30;99.90;;;;;;5009058;28;20455;-73
2022/01/17 10:10:44;;;;;;;2.70;2.50;;;8.30;99.90;;;;;;5009393;28;20423;-73
2022/01/17 10:13:32;;;;;;;1.73;1.63;;;8.10;99.90;;;;;;5020672;28;20431;-74
2022/01/17 10:16:08;;;;;;;0.90;0.90;;;8.10;99.90;;;;;;5030638;28;20533;-74
2022/01/17 10:18:46;;;;;;;2.57;1.70;;;7.90;99.90;;;;;;5008553;28;20478;-75
2022/01/17 10:21:36;;;;;;;41.67;5.17;;;7.90;99.90;;;;;;5009050;28;20916;-74
2022/01/17 10:37:14;;;;;;;1.50;1.20;;;8.80;99.90;;;;;;5009451;28;20450;-74
2022/01/17 10:40:00;;;;;;;6.00;3.33;;;9.00;99.90;;;;;;5008995;28;20423;-74
2022/01/17 10:42:29;;;;;;;3.07;1.63;;;9.10;99.90;;;;;;5014718;28;20254;-74
2022/01/17 10:45:08;;;;;;;3.77;2.00;;;9.20;99.90;;;;;;5017334;28;20430;-74
2022/01/17 10:47:37;;;;;;;0.93;0.90;;;10.00;99.90;;;;;;5009124;28;21010;-74
2022/01/17 10:50:08;;;;;;;12.07;3.27;;;10.70;99.90;;;;;;5009535;28;20412;-73
2022/01/17 10:52:38;;;;;;;4.53;4.13;;;11.10;99.90;;;;;;5008944;28;20434;-74
2022/01/17 10:55:11;;;;;;;1.77;1.67;;;11.10;99.90;;;;;;5009367;28;20470;-73
2022/01/17 10:57:42;;;;;;;2.73;2.53;;;11.10;99.90;;;;;;5010672;28;20454;-74
2022/01/17 11:00:12;;;;;;;3.23;2.93;;;10.90;99.90;;;;;;5010403;28;20981;-75
2022/01/17 11:02:39;;;;;;;3.33;3.13;;;10.60;99.90;;;;;;5009936;28;20415;-75
2022/01/17 11:05:07;;;;;;;1.03;1.03;;;10.20;99.90;;;;;;5016980;28;20852;-75
2022/01/17 11:07:45;;;;;;;6.63;2.73;;;9.90;99.90;;;;;;5010984;28;20442;-73
2022/01/17 11:10:36;;;;;;;3.13;2.93;;;9.60;99.90;;;;;;5010096;28;20942;-74
2022/01/17 11:13:04;;;;;;;3.53;1.43;;;9.00;99.90;;;;;;5021542;28;20434;-72
2022/01/17 11:15:33;;;;;;;1.73;1.63;;;8.70;99.90;;;;;;5016084;28;20469;-73
2022/01/17 11:18:04;;;;;;;1.63;0.87;;;8.40;99.90;;;;;;5008562;28;20479;-73
2022/01/17 11:20:31;;;;;;;1.90;1.80;;;8.20;99.90;;;;;;5005782;28;20431;-75
2022/01/17 11:23:00;;;;;;;0.93;0.93;;;8.10;99.90;;;;;;5009308;28;20965;-74
2022/01/17 11:25:32;;;;;;;1.43;1.33;;;8.10;99.90;;;;;;5010526;28;20419;-73
2022/01/17 11:27:58;;;;;;;1.80;1.70;;;8.00;99.90;;;;;;5007655;28;20450;-73
2022/01/17 11:30:24;;;;;;;1.23;1.17;;;7.90;99.90;;;;;;4990347;28;20900;-73
2022/01/17 11:32:51;;;;;;;0.67;0.60;;;8.00;99.90;;;;;;4989652;28;20431;-73
2022/01/17 11:35:18;;;;;;;3.63;3.33;;;8.00;99.90;;;;;;4989388;28;20536;-72
2022/01/17 11:37:47;;;;;;;0.70;0.60;;;8.00;99.90;;;;;;4994629;28;20528;-73
2022/01/17 11:40:14;;;;;;;1.13;1.13;;;8.10;99.90;;;;;;5006889;28;20431;-74
2022/01/17 11:42:45;;;;;;;1.23;1.17;;;8.00;99.90;;;;;;5005991;28;20424;-73
2022/01/17 11:45:23;;;;;;;1.70;0.97;;;8.00;99.90;;;;;;4996376;28;21280;-73
2022/01/17 11:47:50;;;;;;;2.50;2.20;;;8.00;99.90;;;;;;4999488;28;20453;-73
2022/01/17 11:50:31;;;;;;;2.23;1.70;;;8.00;99.90;;;;;;5008809;28;20415;-73
2022/01/17 11:53:20;;;;;;;3.43;1.97;;;8.00;99.90;;;;;;5008721;28;20419;-74
2022/01/17 11:55:48;;;;;;;2.03;1.30;;;8.00;99.90;;;;;;5008077;28;20469;-73
2022/01/17 11:58:39;;;;;;;2.63;2.37;;;8.00;99.90;;;;;;5009784;28;20467;-74
2022/01/17 12:01:04;;;;;;;0.93;0.93;;;7.90;99.90;;;;;;5016051;28;20454;-74
2022/01/17 12:03:51;;;;;;;8.17;1.80;;;7.90;99.90;;;;;;5011957;28;20903;-74
2022/01/17 12:06:25;;;;;;;0.77;0.77;;;7.80;99.90;;;;;;4995449;28;20576;-74
2022/01/17 12:09:21;;;;;;;3.57;1.93;;;7.70;99.90;;;;;;5011956;28;20784;-74
2022/01/17 12:12:12;;;;;;;2.47;2.20;;;7.70;99.90;;;;;;5017885;28;20430;-74
2022/01/17 12:14:54;;;;;;;0.70;0.63;;;7.70;99.90;;;;;;5011535;28;20431;-75
2022/01/17 12:17:19;;;;;;;1.60;1.50;;;7.60;99.90;;;;;;5040496;28;20457;-75
2022/01/17 12:20:07;;;;;;;2.60;2.00;;;7.50;99.90;;;;;;5019994;28;20783;-75
2022/01/17 12:22:39;;;;;;;1.07;1.00;;;7.50;99.90;;;;;;5013076;28;20633;-75
2022/01/17 12:25:24;;;;;;;2.07;1.97;;;7.60;99.90;;;;;;5013282;28;20510;-72
2022/01/17 12:27:51;;;;;;;1.77;1.70;;;7.60;99.90;;;;;;5012201;28;20447;-74
2022/01/17 12:30:17;;;;;;;0.60;0.60;;;7.60;99.90;;;;;;5011648;28;20433;-73
2022/01/17 12:32:48;;;;;;;2.30;2.10;;;7.60;99.90;;;;;;5011066;28;20434;-73
2022/01/17 12:35:21;;;;;;;1.80;1.70;;;7.60;99.90;;;;;;5011366;28;20447;-73
2022/01/17 12:38:03;;;;;;;0.80;0.80;;;7.60;99.90;;;;;;5010304;28;20812;-76
2022/01/17 12:40:40;;;;;;;0.87;0.87;;;7.60;99.90;;;;;;5020846;28;20439;-75
2022/01/17 12:43:12;;;;;;;0.60;0.60;;;7.60;99.90;;;;;;4994487;28;20453;-73
2022/01/17 12:45:46;;;;;;;1.10;1.10;;;7.60;99.90;;;;;;5010912;28;20453;-73
2022/01/17 12:48:17;;;;;;;3.23;2.03;;;7.60;99.90;;;;;;5009652;28;20775;-73
2022/01/17 12:50:46;;;;;;;0.70;0.60;;;7.60;99.90;;;;;;5010894;28;20458;-74
2022/01/17 12:53:17;;;;;;;2.20;2.00;;;7.60;99.90;;;;;;5012845;28;20920;-75
2022/01/17 12:55:56;;;;;;;0.77;0.77;;;7.60;99.90;;;;;;5011648;28;20827;-75
2022/01/17 12:58:27;;;;;;;4.50;1.57;;;7.60;99.90;;;;;;5013216;28;20435;-74
2022/01/17 13:01:02;;;;;;;2.20;2.10;;;7.60;99.90;;;;;;5012126;28;20399;-74
2022/01/17 13:03:32;;;;;;;4.97;4.10;;;7.60;99.90;;;;;;5010702;28;20418;-74
2022/01/17 13:05:59;;;;;;;1.33;1.23;;;7.60;99.90;;;;;;5010304;28;20471;-74
2022/01/17 13:08:25;;;;;;;0.83;0.83;;;7.50;99.90;;;;;;5010241;28;20471;-74
2022/01/17 13:10:52;;;;;;;3.60;3.40;;;7.50;99.90;;;;;;5010849;28;20419;-73
2022/01/17 13:13:18;;;;;;;0.80;0.80;;;7.50;99.90;;;;;;5026467;28;20415;-74
2022/01/17 13:16:02;;;;;;;2.10;1.83;;;7.50;99.90;;;;;;5013658;28;20470;-75
2022/01/17 13:18:31;;;;;;;0.70;0.70;;;7.50;99.90;;;;;;5013279;28;20403;-73
2022/01/17 13:20:59;;;;;;;1.37;1.27;;;7.40;99.90;;;;;;5012115;28;20780;-74
2022/01/17 13:23:50;;;;;;;0.67;0.67;;;7.40;99.90;;;;;;5011003;28;20453;-74
2022/01/17 13:26:20;;;;;;;1.27;1.17;;;7.40;99.90;;;;;;5009751;28;20476;-73
2022/01/17 13:28:51;;;;;;;1.13;1.13;;;7.40;99.90;;;;;;5010820;28;20416;-74